sensor_id;sensor_type;location;lat;lon;timestamp;P1;durP1;ratioP1;P2;durP2;ratioP2
47922;SDS011;33688;44.354;9.228;2022-09-24T00:01:29;0.63;;;0.55;;
47922;SDS011;33688;44.354;9.228;2022-09-24T00:03:59;1.00;;;0.80;;
47922;SDS011;33688;44.354;9.228;2022-09-24T00:06:28;0.80;;;0.63;;
47922;SDS011;33688;44.354;9.228;2022-09-24T00:08:58;0.50;;;0.50;;
47922;SDS011;33688;44.354;9.228;2022-09-24T00:11:24;1.05;;;0.77;;
47922;SDS011;33688;44.354;9.228;2022-09-24T00:13:54;1.10;;;0.82;;
47922;SDS011;33688;44.354;9.228;2022-09-24T00:16:23;0.63;;;0.60;;
47922;SDS011;33688;44.354;9.228;2022-09-24T00:18:52;2.15;;;0.68;;
47922;SDS011;33688;44.354;9.228;2022-09-24T00:21:19;0.63;;;0.63;;
47922;SDS011;33688;44.354;9.228;2022-09-24T00:23:53;1.02;;;0.70;;
47922;SDS011;33688;44.354;9.228;2022-09-24T00:26:22;1.25;;;0.88;;
47922;SDS011;33688;44.354;9.228;2022-09-24T00:29:08;0.60;;;0.60;;
47922;SDS011;33688;44.354;9.228;2022-09-24T00:31:35;1.00;;;0.90;;
47922;SDS011;33688;44.354;9.228;2022-09-24T00:34:02;0.57;;;0.57;;
47922;SDS011;33688;44.354;9.228;2022-09-24T00:36:28;0.95;;;0.77;;
47922;SDS011;33688;44.354;9.228;2022-09-24T00:38:55;2.20;;;1.00;;
47922;SDS011;33688;44.354;9.228;2022-09-24T00:41:28;2.33;;;1.00;;
47922;SDS011;33688;44.354;9.228;2022-09-24T00:43:56;1.13;;;0.65;;
47922;SDS011;33688;44.354;9.228;2022-09-24T00:46:39;0.70;;;0.65;;
47922;SDS011;33688;44.354;9.228;2022-09-24T00:49:11;1.30;;;0.90;;
47922;SDS011;33688;44.354;9.228;2022-09-24T00:51:41;0.70;;;0.60;;
47922;SDS011;33688;44.354;9.228;2022-09-24T00:54:21;0.30;;;0.30;;
47922;SDS011;33688;44.354;9.228;2022-09-24T00:56:52;0.87;;;0.80;;
47922;SDS011;33688;44.354;9.228;2022-09-24T00:59:20;0.68;;;0.63;;
47922;SDS011;33688;44.354;9.228;2022-09-24T01:01:48;0.85;;;0.60;;
47922;SDS011;33688;44.354;9.228;2022-09-24T01:04:18;0.60;;;0.60;;
47922;SDS011;33688;44.354;9.228;2022-09-24T01:06:46;0.70;;;0.70;;
47922;SDS011;33688;44.354;9.228;2022-09-24T01:09:14;0.98;;;0.68;;
47922;SDS011;33688;44.354;9.228;2022-09-24T01:11:51;0.70;;;0.60;;
47922;SDS011;33688;44.354;9.228;2022-09-24T01:14:51;0.70;;;0.60;;
47922;SDS011;33688;44.354;9.228;2022-09-24T01:17:28;0.73;;;0.70;;
47922;SDS011;33688;44.354;9.228;2022-09-24T01:23:46;0.93;;;0.70;;
47922;SDS011;33688;44.354;9.228;2022-09-24T01:28:58;0.60;;;0.60;;
47922;SDS011;33688;44.354;9.228;2022-09-24T01:35:05;0.50;;;0.50;;
47922;SDS011;33688;44.354;9.228;2022-09-24T01:40:59;0.95;;;0.63;;
47922;SDS011;33688;44.354;9.228;2022-09-24T01:43:27;0.70;;;0.63;;
47922;SDS011;33688;44.354;9.228;2022-09-24T01:45:54;1.13;;;0.55;;
47922;SDS011;33688;44.354;9.228;2022-09-24T01:48:24;0.88;;;0.63;;
47922;SDS011;33688;44.354;9.228;2022-09-24T01:50:56;0.95;;;0.82;;
47922;SDS011;33688;44.354;9.228;2022-09-24T01:53:52;0.47;;;0.47;;
47922;SDS011;33688;44.354;9.228;2022-09-24T01:56:41;0.77;;;0.63;;
47922;SDS011;33688;44.354;9.228;2022-09-24T01:59:33;1.05;;;0.70;;
47922;SDS011;33688;44.354;9.228;2022-09-24T02:11:02;0.47;;;0.40;;
47922;SDS011;33688;44.354;9.228;2022-09-24T02:13:44;0.73;;;0.70;;
47922;SDS011;33688;44.354;9.228;2022-09-24T02:16:45;0.70;;;0.70;;
47922;SDS011;33688;44.354;9.228;2022-09-24T02:19:14;0.43;;;0.43;;
47922;SDS011;33688;44.354;9.228;2022-09-24T02:21:45;0.70;;;0.70;;
47922;SDS011;33688;44.354;9.228;2022-09-24T02:24:21;1.20;;;0.50;;
47922;SDS011;33688;44.354;9.228;2022-09-24T02:26:56;0.70;;;0.70;;
47922;SDS011;33688;44.354;9.228;2022-09-24T02:29:23;0.98;;;0.85;;
47922;SDS011;33688;44.354;9.228;2022-09-24T02:31:48;1.27;;;0.60;;
47922;SDS011;33688;44.354;9.228;2022-09-24T02:34:27;0.70;;;0.70;;
47922;SDS011;33688;44.354;9.228;2022-09-24T02:37:03;0.85;;;0.68;;
47922;SDS011;33688;44.354;9.228;2022-09-24T02:41:58;0.40;;;0.40;;
47922;SDS011;33688;44.354;9.228;2022-09-24T02:44:27;0.80;;;0.60;;
47922;SDS011;33688;44.354;9.228;2022-09-24T02:46:55;0.50;;;0.50;;
47922;SDS011;33688;44.354;9.228;2022-09-24T02:49:21;0.57;;;0.50;;
47922;SDS011;33688;44.354;9.228;2022-09-24T02:51:47;0.57;;;0.57;;
47922;SDS011;33688;44.354;9.228;2022-09-24T02:54:12;0.60;;;0.50;;
47922;SDS011;33688;44.354;9.228;2022-09-24T02:56:38;1.00;;;0.70;;
47922;SDS011;33688;44.354;9.228;2022-09-24T02:59:04;0.30;;;0.30;;
47922;SDS011;33688;44.354;9.228;2022-09-24T03:01:31;0.75;;;0.75;;
47922;SDS011;33688;44.354;9.228;2022-09-24T03:03:57;0.60;;;0.60;;
47922;SDS011;33688;44.354;9.228;2022-09-24T03:06:23;1.55;;;0.60;;
47922;SDS011;33688;44.354;9.228;2022-09-24T03:08:49;0.57;;;0.50;;
47922;SDS011;33688;44.354;9.228;2022-09-24T03:11:17;0.40;;;0.40;;
47922;SDS011;33688;44.354;9.228;2022-09-24T03:13:44;0.38;;;0.38;;
47922;SDS011;33688;44.354;9.228;2022-09-24T03:16:10;0.90;;;0.70;;
47922;SDS011;33688;44.354;9.228;2022-09-24T03:18:36;0.98;;;0.55;;
47922;SDS011;33688;44.354;9.228;2022-09-24T03:21:09;0.82;;;0.73;;
47922;SDS011;33688;44.354;9.228;2022-09-24T03:23:36;0.68;;;0.60;;
47922;SDS011;33688;44.354;9.228;2022-09-24T03:26:03;0.60;;;0.60;;
47922;SDS011;33688;44.354;9.228;2022-09-24T03:28:29;1.95;;;0.70;;
47922;SDS011;33688;44.354;9.228;2022-09-24T03:30:55;0.60;;;0.60;;
47922;SDS011;33688;44.354;9.228;2022-09-24T03:33:28;0.70;;;0.68;;
47922;SDS011;33688;44.354;9.228;2022-09-24T03:36:04;0.65;;;0.60;;
47922;SDS011;33688;44.354;9.228;2022-09-24T03:38:35;0.60;;;0.60;;
47922;SDS011;33688;44.354;9.228;2022-09-24T03:41:03;0.60;;;0.60;;
47922;SDS011;33688;44.354;9.228;2022-09-24T03:43:29;0.47;;;0.47;;
47922;SDS011;33688;44.354;9.228;2022-09-24T03:45:56;0.65;;;0.65;;
47922;SDS011;33688;44.354;9.228;2022-09-24T03:48:23;0.50;;;0.50;;
47922;SDS011;33688;44.354;9.228;2022-09-24T03:50:50;0.50;;;0.50;;
47922;SDS011;33688;44.354;9.228;2022-09-24T03:53:17;1.52;;;0.82;;
47922;SDS011;33688;44.354;9.228;2022-09-24T03:55:45;0.80;;;0.80;;
47922;SDS011;33688;44.354;9.228;2022-09-24T03:58:14;1.45;;;0.90;;
47922;SDS011;33688;44.354;9.228;2022-09-24T04:00:41;0.40;;;0.40;;
47922;SDS011;33688;44.354;9.228;2022-09-24T04:03:07;0.45;;;0.45;;
47922;SDS011;33688;44.354;9.228;2022-09-24T04:05:33;0.50;;;0.50;;
47922;SDS011;33688;44.354;9.228;2022-09-24T04:08:00;1.13;;;0.50;;
47922;SDS011;33688;44.354;9.228;2022-09-24T04:10:27;0.70;;;0.70;;
47922;SDS011;33688;44.354;9.228;2022-09-24T04:12:54;1.25;;;0.40;;
47922;SDS011;33688;44.354;9.228;2022-09-24T04:15:20;0.60;;;0.47;;
47922;SDS011;33688;44.354;9.228;2022-09-24T04:17:57;2.15;;;0.73;;
47922;SDS011;33688;44.354;9.228;2022-09-24T04:20:24;1.25;;;0.70;;
47922;SDS011;33688;44.354;9.228;2022-09-24T04:22:53;0.60;;;0.50;;
47922;SDS011;33688;44.354;9.228;2022-09-24T04:25:21;0.65;;;0.55;;
47922;SDS011;33688;44.354;9.228;2022-09-24T04:27:59;0.50;;;0.50;;
47922;SDS011;33688;44.354;9.228;2022-09-24T04:30:28;0.60;;;0.60;;
47922;SDS011;33688;44.354;9.228;2022-09-24T04:32:56;0.50;;;0.50;;
47922;SDS011;33688;44.354;9.228;2022-09-24T04:35:24;0.68;;;0.68;;
47922;SDS011;33688;44.354;9.228;2022-09-24T04:37:51;0.65;;;0.57;;
47922;SDS011;33688;44.354;9.228;2022-09-24T04:40:17;0.52;;;0.52;;
47922;SDS011;33688;44.354;9.228;2022-09-24T04:42:43;0.43;;;0.43;;
47922;SDS011;33688;44.354;9.228;2022-09-24T04:45:11;0.40;;;0.40;;
47922;SDS011;33688;44.354;9.228;2022-09-24T04:47:40;0.52;;;0.52;;
47922;SDS011;33688;44.354;9.228;2022-09-24T04:50:07;0.80;;;0.60;;
47922;SDS011;33688;44.354;9.228;2022-09-24T04:52:35;0.40;;;0.40;;
47922;SDS011;33688;44.354;9.228;2022-09-24T04:55:03;0.50;;;0.50;;
47922;SDS011;33688;44.354;9.228;2022-09-24T04:57:30;0.40;;;0.40;;
47922;SDS011;33688;44.354;9.228;2022-09-24T05:00:00;0.38;;;0.38;;
47922;SDS011;33688;44.354;9.228;2022-09-24T05:02:32;0.52;;;0.52;;
47922;SDS011;33688;44.354;9.228;2022-09-24T05:04:58;0.40;;;0.38;;
47922;SDS011;33688;44.354;9.228;2022-09-24T05:07:24;0.52;;;0.52;;
47922;SDS011;33688;44.354;9.228;2022-09-24T05:09:49;0.30;;;0.30;;
47922;SDS011;33688;44.354;9.228;2022-09-24T05:12:15;0.52;;;0.52;;
47922;SDS011;33688;44.354;9.228;2022-09-24T05:14:42;0.85;;;0.65;;
47922;SDS011;33688;44.354;9.228;2022-09-24T05:17:08;0.57;;;0.57;;
47922;SDS011;33688;44.354;9.228;2022-09-24T05:19:34;0.50;;;0.50;;
47922;SDS011;33688;44.354;9.228;2022-09-24T05:21:59;0.50;;;0.50;;
47922;SDS011;33688;44.354;9.228;2022-09-24T05:24:25;0.57;;;0.57;;
47922;SDS011;33688;44.354;9.228;2022-09-24T05:26:51;0.60;;;0.50;;
47922;SDS011;33688;44.354;9.228;2022-09-24T05:29:35;0.60;;;0.60;;
47922;SDS011;33688;44.354;9.228;2022-09-24T05:32:07;0.50;;;0.50;;
47922;SDS011;33688;44.354;9.228;2022-09-24T05:34:44;0.50;;;0.50;;
47922;SDS011;33688;44.354;9.228;2022-09-24T05:37:11;0.90;;;0.60;;
47922;SDS011;33688;44.354;9.228;2022-09-24T05:39:38;0.57;;;0.40;;
47922;SDS011;33688;44.354;9.228;2022-09-24T05:42:04;0.60;;;0.60;;
47922;SDS011;33688;44.354;9.228;2022-09-24T05:44:32;0.57;;;0.50;;
47922;SDS011;33688;44.354;9.228;2022-09-24T05:46:58;0.60;;;0.60;;
47922;SDS011;33688;44.354;9.228;2022-09-24T05:49:24;0.40;;;0.40;;
47922;SDS011;33688;44.354;9.228;2022-09-24T05:51:50;0.43;;;0.43;;
47922;SDS011;33688;44.354;9.228;2022-09-24T05:54:17;0.55;;;0.55;;
47922;SDS011;33688;44.354;9.228;2022-09-24T05:56:43;1.00;;;0.60;;
47922;SDS011;33688;44.354;9.228;2022-09-24T05:59:10;0.60;;;0.60;;
47922;SDS011;33688;44.354;9.228;2022-09-24T06:01:36;1.10;;;0.77;;
47922;SDS011;33688;44.354;9.228;2022-09-24T06:04:02;0.40;;;0.40;;
47922;SDS011;33688;44.354;9.228;2022-09-24T06:06:28;0.43;;;0.43;;
47922;SDS011;33688;44.354;9.228;2022-09-24T06:08:54;0.50;;;0.50;;
47922;SDS011;33688;44.354;9.228;2022-09-24T06:11:20;0.40;;;0.40;;
47922;SDS011;33688;44.354;9.228;2022-09-24T06:13:47;0.50;;;0.47;;
47922;SDS011;33688;44.354;9.228;2022-09-24T06:16:15;0.60;;;0.60;;
47922;SDS011;33688;44.354;9.228;2022-09-24T06:18:41;0.52;;;0.52;;
47922;SDS011;33688;44.354;9.228;2022-09-24T06:21:10;1.02;;;0.50;;
47922;SDS011;33688;44.354;9.228;2022-09-24T06:23:39;0.60;;;0.60;;
47922;SDS011;33688;44.354;9.228;2022-09-24T06:26:08;0.50;;;0.50;;
47922;SDS011;33688;44.354;9.228;2022-09-24T06:28:37;0.50;;;0.50;;
47922;SDS011;33688;44.354;9.228;2022-09-24T06:31:04;0.55;;;0.50;;
47922;SDS011;33688;44.354;9.228;2022-09-24T06:33:31;0.43;;;0.43;;
47922;SDS011;33688;44.354;9.228;2022-09-24T06:36:01;0.80;;;0.60;;
47922;SDS011;33688;44.354;9.228;2022-09-24T06:38:29;0.57;;;0.50;;
47922;SDS011;33688;44.354;9.228;2022-09-24T06:40:59;0.30;;;0.30;;
47922;SDS011;33688;44.354;9.228;2022-09-24T06:43:26;0.65;;;0.65;;
47922;SDS011;33688;44.354;9.228;2022-09-24T06:45:55;0.70;;;0.52;;
47922;SDS011;33688;44.354;9.228;2022-09-24T06:48:23;0.50;;;0.50;;
47922;SDS011;33688;44.354;9.228;2022-09-24T06:50:50;0.40;;;0.40;;
47922;SDS011;33688;44.354;9.228;2022-09-24T06:53:17;0.63;;;0.63;;
47922;SDS011;33688;44.354;9.228;2022-09-24T06:55:43;0.50;;;0.50;;
47922;SDS011;33688;44.354;9.228;2022-09-24T06:58:13;0.45;;;0.43;;
47922;SDS011;33688;44.354;9.228;2022-09-24T07:00:57;0.55;;;0.50;;
47922;SDS011;33688;44.354;9.228;2022-09-24T07:03:27;0.60;;;0.60;;
47922;SDS011;33688;44.354;9.228;2022-09-24T07:05:55;1.15;;;0.50;;
47922;SDS011;33688;44.354;9.228;2022-09-24T07:08:24;0.60;;;0.60;;
47922;SDS011;33688;44.354;9.228;2022-09-24T07:10:50;0.82;;;0.70;;
47922;SDS011;33688;44.354;9.228;2022-09-24T07:13:19;0.50;;;0.50;;
47922;SDS011;33688;44.354;9.228;2022-09-24T07:15:46;0.50;;;0.50;;
47922;SDS011;33688;44.354;9.228;2022-09-24T07:18:15;0.50;;;0.50;;
47922;SDS011;33688;44.354;9.228;2022-09-24T07:20:42;0.45;;;0.45;;
47922;SDS011;33688;44.354;9.228;2022-09-24T07:23:09;0.47;;;0.47;;
47922;SDS011;33688;44.354;9.228;2022-09-24T07:25:37;0.45;;;0.45;;
47922;SDS011;33688;44.354;9.228;2022-09-24T07:28:07;0.30;;;0.30;;
47922;SDS011;33688;44.354;9.228;2022-09-24T07:30:39;3.65;;;1.33;;
47922;SDS011;33688;44.354;9.228;2022-09-24T07:33:05;3.17;;;1.38;;
47922;SDS011;33688;44.354;9.228;2022-09-24T07:35:32;3.10;;;2.03;;
47922;SDS011;33688;44.354;9.228;2022-09-24T07:38:01;5.68;;;2.20;;
47922;SDS011;33688;44.354;9.228;2022-09-24T07:40:30;10.40;;;2.78;;
47922;SDS011;33688;44.354;9.228;2022-09-24T07:42:57;8.02;;;2.47;;
47922;SDS011;33688;44.354;9.228;2022-09-24T07:45:24;8.25;;;2.60;;
47922;SDS011;33688;44.354;9.228;2022-09-24T07:47:57;9.52;;;2.92;;
47922;SDS011;33688;44.354;9.228;2022-09-24T07:50:23;4.07;;;1.95;;
47922;SDS011;33688;44.354;9.228;2022-09-24T07:52:49;4.50;;;2.28;;
47922;SDS011;33688;44.354;9.228;2022-09-24T07:55:15;5.78;;;2.45;;
47922;SDS011;33688;44.354;9.228;2022-09-24T07:57:45;3.00;;;1.70;;
47922;SDS011;33688;44.354;9.228;2022-09-24T08:00:13;7.82;;;2.03;;
47922;SDS011;33688;44.354;9.228;2022-09-24T08:02:41;3.58;;;1.85;;
47922;SDS011;33688;44.354;9.228;2022-09-24T08:05:08;3.45;;;1.42;;
47922;SDS011;33688;44.354;9.228;2022-09-24T08:07:34;2.53;;;1.83;;
47922;SDS011;33688;44.354;9.228;2022-09-24T08:10:00;4.03;;;1.30;;
47922;SDS011;33688;44.354;9.228;2022-09-24T08:12:26;3.95;;;1.73;;
47922;SDS011;33688;44.354;9.228;2022-09-24T08:14:52;9.40;;;2.17;;
47922;SDS011;33688;44.354;9.228;2022-09-24T08:17:18;5.85;;;1.58;;
47922;SDS011;33688;44.354;9.228;2022-09-24T08:19:44;15.45;;;2.85;;
47922;SDS011;33688;44.354;9.228;2022-09-24T08:22:11;9.55;;;2.42;;
47922;SDS011;33688;44.354;9.228;2022-09-24T08:24:38;6.22;;;2.10;;
47922;SDS011;33688;44.354;9.228;2022-09-24T08:27:06;9.88;;;2.20;;
47922;SDS011;33688;44.354;9.228;2022-09-24T08:29:32;8.38;;;2.45;;
47922;SDS011;33688;44.354;9.228;2022-09-24T08:31:59;6.35;;;2.00;;
47922;SDS011;33688;44.354;9.228;2022-09-24T08:34:26;7.93;;;2.95;;
47922;SDS011;33688;44.354;9.228;2022-09-24T08:36:52;15.85;;;3.42;;
47922;SDS011;33688;44.354;9.228;2022-09-24T08:39:18;8.15;;;2.28;;
47922;SDS011;33688;44.354;9.228;2022-09-24T08:41:58;8.88;;;2.47;;
47922;SDS011;33688;44.354;9.228;2022-09-24T08:44:42;6.22;;;2.33;;
47922;SDS011;33688;44.354;9.228;2022-09-24T08:55:48;4.07;;;2.13;;
47922;SDS011;33688;44.354;9.228;2022-09-24T09:04:28;7.90;;;3.15;;
47922;SDS011;33688;44.354;9.228;2022-09-24T09:07:04;6.68;;;2.97;;
47922;SDS011;33688;44.354;9.228;2022-09-24T09:12:45;9.25;;;4.43;;
47922;SDS011;33688;44.354;9.228;2022-09-24T09:15:20;7.05;;;3.65;;
47922;SDS011;33688;44.354;9.228;2022-09-24T09:20:40;10.93;;;4.30;;
47922;SDS011;33688;44.354;9.228;2022-09-24T09:25:47;10.18;;;4.32;;
47922;SDS011;33688;44.354;9.228;2022-09-24T09:28:27;9.73;;;4.15;;
47922;SDS011;33688;44.354;9.228;2022-09-24T09:36:52;8.85;;;3.95;;
47922;SDS011;33688;44.354;9.228;2022-09-24T09:42:43;10.38;;;5.40;;
47922;SDS011;33688;44.354;9.228;2022-09-24T09:45:17;9.98;;;5.70;;
47922;SDS011;33688;44.354;9.228;2022-09-24T09:47:48;7.80;;;5.00;;
47922;SDS011;33688;44.354;9.228;2022-09-24T09:52:52;11.70;;;5.72;;
47922;SDS011;33688;44.354;9.228;2022-09-24T09:55:26;9.23;;;5.20;;
47922;SDS011;33688;44.354;9.228;2022-09-24T09:58:00;10.85;;;5.50;;
47922;SDS011;33688;44.354;9.228;2022-09-24T10:00:40;12.40;;;5.53;;
47922;SDS011;33688;44.354;9.228;2022-09-24T10:06:00;11.77;;;5.40;;
47922;SDS011;33688;44.354;9.228;2022-09-24T10:08:29;14.88;;;5.72;;
47922;SDS011;33688;44.354;9.228;2022-09-24T10:10:59;10.70;;;5.07;;
47922;SDS011;33688;44.354;9.228;2022-09-24T10:13:27;9.80;;;6.00;;
47922;SDS011;33688;44.354;9.228;2022-09-24T10:15:57;10.27;;;4.63;;
47922;SDS011;33688;44.354;9.228;2022-09-24T10:18:30;13.15;;;6.25;;
47922;SDS011;33688;44.354;9.228;2022-09-24T10:21:13;10.73;;;4.93;;
47922;SDS011;33688;44.354;9.228;2022-09-24T10:24:00;7.72;;;4.53;;
47922;SDS011;33688;44.354;9.228;2022-09-24T10:26:38;9.27;;;5.00;;
47922;SDS011;33688;44.354;9.228;2022-09-24T10:29:10;11.18;;;5.38;;
47922;SDS011;33688;44.354;9.228;2022-09-24T10:32:17;13.55;;;4.78;;
47922;SDS011;33688;44.354;9.228;2022-09-24T10:34:56;9.90;;;5.90;;
47922;SDS011;33688;44.354;9.228;2022-09-24T10:37:49;10.65;;;4.85;;
47922;SDS011;33688;44.354;9.228;2022-09-24T10:40:23;9.07;;;5.50;;
47922;SDS011;33688;44.354;9.228;2022-09-24T10:43:01;13.55;;;4.50;;
47922;SDS011;33688;44.354;9.228;2022-09-24T10:51:19;9.18;;;4.10;;
47922;SDS011;33688;44.354;9.228;2022-09-24T10:57:26;11.43;;;4.15;;
47922;SDS011;33688;44.354;9.228;2022-09-24T10:59:57;10.73;;;4.43;;
47922;SDS011;33688;44.354;9.228;2022-09-24T11:02:54;8.38;;;3.72;;
47922;SDS011;33688;44.354;9.228;2022-09-24T11:08:48;9.32;;;3.92;;
47922;SDS011;33688;44.354;9.228;2022-09-24T11:21:01;8.82;;;4.68;;
47922;SDS011;33688;44.354;9.228;2022-09-24T11:27:03;9.18;;;3.95;;
47922;SDS011;33688;44.354;9.228;2022-09-24T11:41:51;6.65;;;3.15;;
47922;SDS011;33688;44.354;9.228;2022-09-24T11:53:56;6.82;;;2.90;;
47922;SDS011;33688;44.354;9.228;2022-09-24T11:56:28;5.65;;;2.83;;
47922;SDS011;33688;44.354;9.228;2022-09-24T12:02:16;7.25;;;2.92;;
47922;SDS011;33688;44.354;9.228;2022-09-24T12:04:58;5.70;;;2.97;;
47922;SDS011;33688;44.354;9.228;2022-09-24T12:16:10;6.70;;;3.90;;
47922;SDS011;33688;44.354;9.228;2022-09-24T12:19:02;9.20;;;3.20;;
47922;SDS011;33688;44.354;9.228;2022-09-24T12:21:52;8.53;;;3.70;;
47922;SDS011;33688;44.354;9.228;2022-09-24T12:24:56;7.00;;;2.97;;
47922;SDS011;33688;44.354;9.228;2022-09-24T12:27:25;6.80;;;3.70;;
47922;SDS011;33688;44.354;9.228;2022-09-24T12:30:08;9.05;;;3.95;;
47922;SDS011;33688;44.354;9.228;2022-09-24T12:36:41;9.52;;;3.85;;
47922;SDS011;33688;44.354;9.228;2022-09-24T12:39:22;10.10;;;3.15;;
47922;SDS011;33688;44.354;9.228;2022-09-24T12:42:04;6.80;;;3.50;;
47922;SDS011;33688;44.354;9.228;2022-09-24T12:44:36;7.45;;;3.58;;
47922;SDS011;33688;44.354;9.228;2022-09-24T12:47:28;8.55;;;4.10;;
47922;SDS011;33688;44.354;9.228;2022-09-24T12:50:00;6.53;;;3.45;;
47922;SDS011;33688;44.354;9.228;2022-09-24T12:52:39;5.63;;;3.05;;
47922;SDS011;33688;44.354;9.228;2022-09-24T13:04:04;10.23;;;3.85;;
47922;SDS011;33688;44.354;9.228;2022-09-24T13:06:39;7.78;;;3.78;;
47922;SDS011;33688;44.354;9.228;2022-09-24T13:12:01;4.88;;;3.10;;
47922;SDS011;33688;44.354;9.228;2022-09-24T13:14:27;9.15;;;2.83;;
47922;SDS011;33688;44.354;9.228;2022-09-24T13:16:57;5.05;;;2.70;;
47922;SDS011;33688;44.354;9.228;2022-09-24T13:19:28;8.32;;;3.08;;
47922;SDS011;33688;44.354;9.228;2022-09-24T13:22:05;5.60;;;2.80;;
47922;SDS011;33688;44.354;9.228;2022-09-24T13:24:52;7.85;;;2.75;;
47922;SDS011;33688;44.354;9.228;2022-09-24T13:28:02;5.45;;;3.05;;
47922;SDS011;33688;44.354;9.228;2022-09-24T13:30:51;9.95;;;2.97;;
47922;SDS011;33688;44.354;9.228;2022-09-24T13:33:45;6.50;;;2.83;;
47922;SDS011;33688;44.354;9.228;2022-09-24T13:39:06;5.72;;;2.85;;
47922;SDS011;33688;44.354;9.228;2022-09-24T13:44:54;6.25;;;2.90;;
47922;SDS011;33688;44.354;9.228;2022-09-24T13:50:25;6.47;;;2.90;;
47922;SDS011;33688;44.354;9.228;2022-09-24T13:53:02;5.80;;;2.22;;
47922;SDS011;33688;44.354;9.228;2022-09-24T13:55:43;8.75;;;2.92;;
47922;SDS011;33688;44.354;9.228;2022-09-24T13:58:29;4.55;;;2.35;;
47922;SDS011;33688;44.354;9.228;2022-09-24T14:03:51;7.95;;;2.88;;
47922;SDS011;33688;44.354;9.228;2022-09-24T14:06:50;7.10;;;2.70;;
47922;SDS011;33688;44.354;9.228;2022-09-24T14:09:28;6.45;;;3.20;;
47922;SDS011;33688;44.354;9.228;2022-09-24T14:12:00;7.60;;;3.67;;
47922;SDS011;33688;44.354;9.228;2022-09-24T14:14:44;8.52;;;3.92;;
47922;SDS011;33688;44.354;9.228;2022-09-24T14:17:15;5.65;;;3.28;;
47922;SDS011;33688;44.354;9.228;2022-09-24T14:19:41;6.15;;;3.53;;
47922;SDS011;33688;44.354;9.228;2022-09-24T14:22:20;6.95;;;3.60;;
47922;SDS011;33688;44.354;9.228;2022-09-24T14:24:57;7.28;;;3.92;;
47922;SDS011;33688;44.354;9.228;2022-09-24T14:27:25;7.72;;;3.67;;
47922;SDS011;33688;44.354;9.228;2022-09-24T14:30:06;9.93;;;4.32;;
47922;SDS011;33688;44.354;9.228;2022-09-24T14:32:41;6.22;;;3.22;;
47922;SDS011;33688;44.354;9.228;2022-09-24T14:35:11;5.65;;;3.40;;
47922;SDS011;33688;44.354;9.228;2022-09-24T14:37:46;9.95;;;4.03;;
47922;SDS011;33688;44.354;9.228;2022-09-24T14:40:17;9.50;;;3.80;;
47922;SDS011;33688;44.354;9.228;2022-09-24T14:42:48;7.07;;;3.22;;
47922;SDS011;33688;44.354;9.228;2022-09-24T14:45:26;10.20;;;3.90;;
47922;SDS011;33688;44.354;9.228;2022-09-24T14:48:04;7.30;;;4.00;;
47922;SDS011;33688;44.354;9.228;2022-09-24T14:50:41;10.13;;;4.45;;
47922;SDS011;33688;44.354;9.228;2022-09-24T14:53:18;7.25;;;4.15;;
47922;SDS011;33688;44.354;9.228;2022-09-24T14:55:46;8.63;;;4.43;;
47922;SDS011;33688;44.354;9.228;2022-09-24T15:00:58;7.32;;;4.18;;
47922;SDS011;33688;44.354;9.228;2022-09-24T15:03:48;6.07;;;3.83;;
47922;SDS011;33688;44.354;9.228;2022-09-24T15:09:02;8.18;;;3.88;;
47922;SDS011;33688;44.354;9.228;2022-09-24T15:11:40;12.15;;;3.95;;
47922;SDS011;33688;44.354;9.228;2022-09-24T15:16:39;8.77;;;4.75;;
47922;SDS011;33688;44.354;9.228;2022-09-24T15:21:41;6.00;;;3.50;;
47922;SDS011;33688;44.354;9.228;2022-09-24T15:24:08;6.45;;;4.15;;
47922;SDS011;33688;44.354;9.228;2022-09-24T15:26:36;6.63;;;3.88;;
47922;SDS011;33688;44.354;9.228;2022-09-24T15:29:05;6.35;;;3.92;;
47922;SDS011;33688;44.354;9.228;2022-09-24T15:31:31;4.57;;;3.03;;
47922;SDS011;33688;44.354;9.228;2022-09-24T15:33:57;9.38;;;3.47;;
47922;SDS011;33688;44.354;9.228;2022-09-24T15:36:23;7.03;;;3.42;;
47922;SDS011;33688;44.354;9.228;2022-09-24T15:38:50;7.78;;;3.67;;
47922;SDS011;33688;44.354;9.228;2022-09-24T15:41:17;4.70;;;3.38;;
47922;SDS011;33688;44.354;9.228;2022-09-24T15:43:46;5.88;;;3.67;;
47922;SDS011;33688;44.354;9.228;2022-09-24T15:46:12;5.68;;;3.60;;
47922;SDS011;33688;44.354;9.228;2022-09-24T15:48:37;6.53;;;3.58;;
47922;SDS011;33688;44.354;9.228;2022-09-24T15:51:03;8.82;;;3.97;;
47922;SDS011;33688;44.354;9.228;2022-09-24T15:53:29;6.50;;;3.53;;
47922;SDS011;33688;44.354;9.228;2022-09-24T15:56:00;5.20;;;3.70;;
47922;SDS011;33688;44.354;9.228;2022-09-24T15:58:28;5.97;;;3.20;;
47922;SDS011;33688;44.354;9.228;2022-09-24T16:00:54;6.72;;;3.45;;
47922;SDS011;33688;44.354;9.228;2022-09-24T16:03:26;6.82;;;3.40;;
47922;SDS011;33688;44.354;9.228;2022-09-24T16:05:56;7.95;;;4.47;;
47922;SDS011;33688;44.354;9.228;2022-09-24T16:08:24;5.93;;;3.58;;
47922;SDS011;33688;44.354;9.228;2022-09-24T16:10:51;4.40;;;3.20;;
47922;SDS011;33688;44.354;9.228;2022-09-24T16:13:17;7.03;;;3.70;;
47922;SDS011;33688;44.354;9.228;2022-09-24T16:15:46;4.30;;;3.10;;
47922;SDS011;33688;44.354;9.228;2022-09-24T16:18:13;5.65;;;3.78;;
47922;SDS011;33688;44.354;9.228;2022-09-24T16:20:42;5.90;;;3.53;;
47922;SDS011;33688;44.354;9.228;2022-09-24T16:23:11;6.80;;;3.88;;
47922;SDS011;33688;44.354;9.228;2022-09-24T16:25:40;8.98;;;3.55;;
47922;SDS011;33688;44.354;9.228;2022-09-24T16:28:17;6.10;;;3.50;;
47922;SDS011;33688;44.354;9.228;2022-09-24T16:30:43;5.90;;;3.22;;
47922;SDS011;33688;44.354;9.228;2022-09-24T16:33:09;5.15;;;3.33;;
47922;SDS011;33688;44.354;9.228;2022-09-24T16:35:36;7.82;;;3.80;;
47922;SDS011;33688;44.354;9.228;2022-09-24T16:38:01;9.02;;;3.28;;
47922;SDS011;33688;44.354;9.228;2022-09-24T16:40:27;7.55;;;3.28;;
47922;SDS011;33688;44.354;9.228;2022-09-24T16:42:53;6.28;;;3.78;;
47922;SDS011;33688;44.354;9.228;2022-09-24T16:45:19;8.25;;;3.17;;
47922;SDS011;33688;44.354;9.228;2022-09-24T16:47:44;5.95;;;3.45;;
47922;SDS011;33688;44.354;9.228;2022-09-24T16:50:10;7.60;;;3.83;;
47922;SDS011;33688;44.354;9.228;2022-09-24T16:52:36;7.68;;;3.58;;
47922;SDS011;33688;44.354;9.228;2022-09-24T16:55:02;5.95;;;3.15;;
47922;SDS011;33688;44.354;9.228;2022-09-24T16:57:28;5.07;;;2.95;;
47922;SDS011;33688;44.354;9.228;2022-09-24T16:59:54;5.25;;;2.90;;
47922;SDS011;33688;44.354;9.228;2022-09-24T17:02:20;5.57;;;3.38;;
47922;SDS011;33688;44.354;9.228;2022-09-24T17:04:46;4.80;;;3.13;;
47922;SDS011;33688;44.354;9.228;2022-09-24T17:07:11;4.78;;;2.78;;
47922;SDS011;33688;44.354;9.228;2022-09-24T17:09:37;7.20;;;3.38;;
47922;SDS011;33688;44.354;9.228;2022-09-24T17:12:22;4.68;;;2.83;;
47922;SDS011;33688;44.354;9.228;2022-09-24T17:14:48;5.82;;;3.17;;
47922;SDS011;33688;44.354;9.228;2022-09-24T17:17:15;4.55;;;2.83;;
47922;SDS011;33688;44.354;9.228;2022-09-24T17:19:41;3.88;;;2.67;;
47922;SDS011;33688;44.354;9.228;2022-09-24T17:22:07;5.20;;;3.13;;
47922;SDS011;33688;44.354;9.228;2022-09-24T17:24:32;5.97;;;2.80;;
47922;SDS011;33688;44.354;9.228;2022-09-24T17:27:03;5.30;;;3.05;;
47922;SDS011;33688;44.354;9.228;2022-09-24T17:29:30;7.35;;;2.85;;
47922;SDS011;33688;44.354;9.228;2022-09-24T17:31:56;4.47;;;2.65;;
47922;SDS011;33688;44.354;9.228;2022-09-24T17:34:23;4.82;;;2.83;;
47922;SDS011;33688;44.354;9.228;2022-09-24T17:36:48;4.63;;;2.75;;
47922;SDS011;33688;44.354;9.228;2022-09-24T17:39:14;8.93;;;3.00;;
47922;SDS011;33688;44.354;9.228;2022-09-24T17:41:41;6.05;;;3.20;;
47922;SDS011;33688;44.354;9.228;2022-09-24T17:44:08;4.93;;;3.17;;
47922;SDS011;33688;44.354;9.228;2022-09-24T17:46:37;6.55;;;3.30;;
47922;SDS011;33688;44.354;9.228;2022-09-24T17:49:03;3.17;;;2.33;;